Time;durP1;ratioP1;P1;durP2;ratioP2;P2;SDS_P1;SDS_P2;PMS_P1;PMS_P2;Temp;Humidity;BMP_temperature;BMP_pressure;BME280_temperature;BME280_humidity;BME280_pressure;Samples;Min_cycle;Max_cycle;Signal;HPM_P1;HPM_P2
2024/01/14 00:00:56;;;;;;;11.27;0.63;;;4.80;99.90;;;;;;5056107;28;20031;-66
2024/01/14 00:03:25;;;;;;;13.85;0.70;;;4.50;99.90;;;;;;5072885;28;20112;-66
2024/01/14 00:05:51;;;;;;;13.00;1.00;;;4.70;99.90;;;;;;5055846;28;20057;-66
2024/01/14 00:08:16;;;;;;;6.47;0.45;;;4.90;99.90;;;;;;5040629;28;20522;-66
2024/01/14 00:10:42;;;;;;;12.88;1.27;;;4.60;99.90;;;;;;5072606;28;20044;-66
2024/01/14 00:13:08;;;;;;;15.52;0.82;;;4.90;99.90;;;;;;5055889;28;20611;-66
2024/01/14 00:15:37;;;;;;;11.55;0.47;;;4.50;99.90;;;;;;5039082;28;20047;-66
2024/01/14 00:18:03;;;;;;;12.32;0.63;;;4.60;99.90;;;;;;5055240;28;20055;-66
2024/01/14 00:20:28;;;;;;;15.65;0.93;;;4.50;99.90;;;;;;5039950;28;20043;-65
2024/01/14 00:22:57;;;;;;;13.43;1.00;;;4.50;99.90;;;;;;5056354;28;20050;-68
2024/01/14 00:25:23;;;;;;;11.25;0.77;;;4.50;99.90;;;;;;5071792;28;20508;-65
2024/01/14 00:27:49;;;;;;;14.50;0.98;;;4.70;99.90;;;;;;5072170;28;20035;-65
2024/01/14 00:30:15;;;;;;;16.98;0.85;;;4.90;99.90;;;;;;5055321;28;20190;-65
2024/01/14 00:32:41;;;;;;;12.88;0.70;;;4.50;99.90;;;;;;5072621;28;20268;-66
2024/01/14 00:35:07;;;;;;;15.77;1.10;;;4.80;99.90;;;;;;5039532;28;20044;-65
2024/01/14 00:37:33;;;;;;;17.85;1.05;;;4.40;99.90;;;;;;5072690;28;20053;-66
2024/01/14 00:39:58;;;;;;;18.38;1.77;;;4.40;99.90;;;;;;5056016;28;20117;-66
2024/01/14 00:42:25;;;;;;;16.73;1.10;;;4.30;99.90;;;;;;5054551;28;20509;-66
2024/01/14 00:44:51;;;;;;;19.58;1.30;;;4.80;99.90;;;;;;5055693;28;20098;-65
2024/01/14 00:47:16;;;;;;;21.27;2.03;;;4.30;99.90;;;;;;5055480;28;20358;-65
2024/01/14 00:49:42;;;;;;;17.08;1.17;;;4.30;99.90;;;;;;5072105;28;20141;-64
2024/01/14 00:52:08;;;;;;;18.20;1.45;;;4.30;99.90;;;;;;5055559;28;20039;-65
2024/01/14 00:54:33;;;;;;;14.95;1.25;;;4.30;99.90;;;;;;5073030;28;20297;-65
2024/01/14 00:56:59;;;;;;;13.35;1.23;;;4.50;99.90;;;;;;5055355;28;20035;-65
2024/01/14 00:59:25;;;;;;;14.75;1.17;;;4.30;99.90;;;;;;5055354;28;20153;-66
2024/01/14 01:01:51;;;;;;;20.55;1.90;;;4.60;99.90;;;;;;5054675;28;20128;-66
2024/01/14 01:04:17;;;;;;;14.75;0.98;;;4.30;99.90;;;;;;5039695;28;20032;-65
2024/01/14 01:06:43;;;;;;;19.58;1.38;;;4.50;99.90;;;;;;5072464;28;20039;-65
2024/01/14 01:09:09;;;;;;;27.08;1.67;;;4.70;99.90;;;;;;5056126;28;20393;-65
2024/01/14 01:11:35;;;;;;;21.02;1.48;;;4.60;99.90;;;;;;5055060;28;20086;-65
2024/01/14 01:14:01;;;;;;;21.63;1.40;;;4.60;99.90;;;;;;5038885;28;20493;-66
2024/01/14 01:16:26;;;;;;;25.23;1.92;;;4.60;99.90;;;;;;5054986;28;20078;-67
2024/01/14 01:18:52;;;;;;;27.77;2.20;;;4.40;99.90;;;;;;5053815;28;20255;-67
2024/01/14 01:21:22;;;;;;;22.63;2.70;;;4.40;99.90;;;;;;5054745;28;20043;-66
2024/01/14 01:23:48;;;;;;;20.92;2.13;;;4.60;99.90;;;;;;5055649;28;20031;-67
2024/01/14 01:26:14;;;;;;;21.45;1.90;;;4.30;99.90;;;;;;5070449;28;20471;-66
2024/01/14 01:28:39;;;;;;;23.20;3.25;;;4.30;99.90;;;;;;5054059;28;20365;-67
2024/01/14 01:31:05;;;;;;;22.05;1.90;;;4.50;99.90;;;;;;5070992;28;20048;-66
2024/01/14 01:33:31;;;;;;;22.48;1.92;;;4.30;99.90;;;;;;5053772;28;20104;-67
2024/01/14 01:35:57;;;;;;;26.48;2.35;;;4.40;99.90;;;;;;5054161;28;20046;-67
2024/01/14 01:38:23;;;;;;;22.00;2.33;;;4.40;99.90;;;;;;5071896;28;20042;-67
2024/01/14 01:40:49;;;;;;;19.67;2.05;;;4.60;99.90;;;;;;5054651;28;20046;-67
2024/01/14 01:43:14;;;;;;;24.30;2.53;;;4.50;99.90;;;;;;5071199;28;20075;-67
2024/01/14 01:45:40;;;;;;;26.42;3.33;;;4.40;99.90;;;;;;5049052;28;20035;-67
2024/01/14 01:48:06;;;;;;;23.15;3.03;;;4.20;99.90;;;;;;5070320;28;20051;-67
2024/01/14 01:50:34;;;;;;;24.85;2.85;;;4.00;99.90;;;;;;5038066;28;20047;-66
2024/01/14 01:53:00;;;;;;;23.63;2.40;;;4.00;99.90;;;;;;5071514;28;20047;-67
2024/01/14 01:55:27;;;;;;;28.45;2.75;;;4.20;99.90;;;;;;5037531;28;20058;-67
2024/01/14 01:57:54;;;;;;;31.83;3.17;;;4.00;99.90;;;;;;5058376;28;20051;-67
2024/01/14 02:00:21;;;;;;;30.25;3.05;;;4.00;99.90;;;;;;5070529;28;20257;-66
2024/01/14 02:02:47;;;;;;;27.52;2.95;;;4.00;99.90;;;;;;5054722;28;20379;-67
2024/01/14 02:05:13;;;;;;;30.95;2.75;;;4.10;99.90;;;;;;5038044;28;20053;-67
2024/01/14 02:07:39;;;;;;;25.63;2.83;;;4.20;99.90;;;;;;5041241;28;20442;-66
2024/01/14 02:10:05;;;;;;;27.90;2.38;;;4.30;99.90;;;;;;5071820;28;20070;-65
2024/01/14 02:12:31;;;;;;;27.42;2.60;;;4.20;99.90;;;;;;5052900;28;20319;-66
2024/01/14 02:14:57;;;;;;;33.72;3.33;;;4.40;99.90;;;;;;5071367;28;20036;-67
2024/01/14 02:17:22;;;;;;;27.60;2.95;;;4.70;99.90;;;;;;5054214;28;20039;-65
2024/01/14 02:19:48;;;;;;;25.27;3.60;;;4.30;99.90;;;;;;5053779;28;20079;-65
2024/01/14 02:22:20;;;;;;;28.73;3.00;;;4.30;99.90;;;;;;5071204;28;20496;-65
2024/01/14 02:24:46;;;;;;;23.15;2.00;;;4.40;99.90;;;;;;5074071;28;20136;-65
2024/01/14 02:27:12;;;;;;;21.67;2.22;;;4.50;99.90;;;;;;5053933;28;20119;-65
2024/01/14 02:29:39;;;;;;;22.17;2.40;;;4.30;99.90;;;;;;5054287;28;20117;-66
2024/01/14 02:32:05;;;;;;;20.15;2.03;;;4.30;99.90;;;;;;5053644;28;20044;-65
2024/01/14 02:34:32;;;;;;;24.60;1.88;;;4.40;99.90;;;;;;5042174;28;20051;-65
2024/01/14 02:37:00;;;;;;;18.85;2.15;;;4.10;99.90;;;;;;5053895;28;20287;-66
2024/01/14 02:39:26;;;;;;;23.00;1.85;;;4.30;99.90;;;;;;5074334;28;20075;-66
2024/01/14 02:41:53;;;;;;;26.00;2.53;;;4.20;99.90;;;;;;5057465;28;20127;-65
2024/01/14 02:44:18;;;;;;;27.55;2.88;;;4.10;99.90;;;;;;5058204;28;20195;-64
2024/01/14 02:46:44;;;;;;;24.13;2.22;;;3.90;99.90;;;;;;5074473;28;20092;-65
2024/01/14 02:49:10;;;;;;;26.50;3.10;;;3.70;99.90;;;;;;5074351;28;20039;-65
2024/01/14 02:51:36;;;;;;;28.65;3.15;;;3.50;99.90;;;;;;5048357;28;20074;-66
2024/01/14 02:54:02;;;;;;;26.40;2.70;;;3.70;99.90;;;;;;5057498;28;20329;-67
2024/01/14 02:56:29;;;;;;;31.42;3.00;;;3.70;99.90;;;;;;5074631;28;20208;-66
2024/01/14 02:58:55;;;;;;;27.50;3.15;;;3.40;99.90;;;;;;5056870;28;20662;-66
2024/01/14 03:01:20;;;;;;;31.42;3.08;;;3.40;99.90;;;;;;5074563;28;20128;-66
2024/01/14 03:03:47;;;;;;;31.65;3.50;;;3.50;99.90;;;;;;5074485;28;20041;-66
2024/01/14 03:06:12;;;;;;;30.58;3.03;;;3.20;99.90;;;;;;5040493;28;20546;-65
2024/01/14 03:08:39;;;;;;;28.65;2.95;;;3.60;99.90;;;;;;5056817;28;20031;-66
2024/01/14 03:11:04;;;;;;;22.17;1.77;;;3.20;99.90;;;;;;5057418;28;20487;-65
2024/01/14 03:13:30;;;;;;;30.15;2.88;;;3.30;99.90;;;;;;5073557;28;20035;-66
2024/01/14 03:15:56;;;;;;;23.38;2.17;;;3.20;99.90;;;;;;5073832;28;20293;-65
2024/01/14 03:18:22;;;;;;;26.67;2.45;;;3.40;99.90;;;;;;5073574;28;20056;-65
2024/01/14 03:20:47;;;;;;;26.70;2.65;;;3.50;99.90;;;;;;5073533;28;20873;-66
2024/01/14 03:23:13;;;;;;;25.33;2.13;;;3.70;99.90;;;;;;5074061;28;20042;-66
2024/01/14 03:25:39;;;;;;;21.38;1.70;;;3.50;99.90;;;;;;5057122;28;20032;-65
2024/01/14 03:28:05;;;;;;;15.32;1.35;;;3.90;99.90;;;;;;5056621;28;20471;-65
2024/01/14 03:30:31;;;;;;;16.55;1.42;;;4.10;99.90;;;;;;5073916;28;20047;-65
2024/01/14 03:32:56;;;;;;;16.27;2.03;;;3.90;99.90;;;;;;5056197;28;20099;-65
2024/01/14 03:35:22;;;;;;;15.32;1.40;;;4.00;99.90;;;;;;5057447;28;20090;-65
2024/01/14 03:37:48;;;;;;;18.58;1.42;;;4.20;99.90;;;;;;5056985;28;20035;-66
2024/01/14 03:40:14;;;;;;;18.27;1.70;;;4.20;99.90;;;;;;5056730;28;20693;-66
2024/01/14 03:42:39;;;;;;;21.92;1.70;;;4.20;99.90;;;;;;5055923;28;20670;-66
2024/01/14 03:45:06;;;;;;;14.93;1.52;;;4.00;99.90;;;;;;5073179;28;20038;-66
2024/01/14 03:47:32;;;;;;;15.75;1.60;;;4.00;99.90;;;;;;5072475;28;20047;-66
2024/01/14 03:49:58;;;;;;;19.00;2.53;;;4.10;99.90;;;;;;5072271;28;20046;-66
2024/01/14 03:52:23;;;;;;;21.30;2.05;;;3.90;99.90;;;;;;5056638;28;20039;-65
2024/01/14 03:54:50;;;;;;;20.67;1.80;;;4.20;99.90;;;;;;5073332;28;20614;-65
2024/01/14 03:57:16;;;;;;;21.48;2.20;;;4.00;99.90;;;;;;5039931;28;20093;-65
2024/01/14 03:59:42;;;;;;;25.42;2.28;;;4.10;99.90;;;;;;5072886;28;20043;-66
2024/01/14 04:02:08;;;;;;;17.88;1.60;;;4.20;99.90;;;;;;5072559;28;20661;-66
2024/01/14 04:04:34;;;;;;;23.92;2.47;;;4.10;99.90;;;;;;5073353;28;20444;-66
2024/01/14 04:06:59;;;;;;;20.48;2.35;;;4.00;99.90;;;;;;5056206;28;20039;-65
2024/01/14 04:09:25;;;;;;;25.77;2.15;;;4.10;99.90;;;;;;5055595;28;20768;-66
2024/01/14 04:11:52;;;;;;;22.13;2.40;;;3.80;99.90;;;;;;5055005;28;20252;-68
2024/01/14 04:14:18;;;;;;;34.05;3.30;;;3.80;99.90;;;;;;5072462;28;20047;-65
2024/01/14 04:16:44;;;;;;;24.73;3.13;;;3.70;99.90;;;;;;5072696;28;20040;-66
2024/01/14 04:19:10;;;;;;;23.90;2.55;;;3.70;99.90;;;;;;5056345;28;20052;-66
2024/01/14 04:21:35;;;;;;;19.25;2.58;;;3.80;99.90;;;;;;5055958;28;20774;-66
2024/01/14 04:24:04;;;;;;;29.52;3.20;;;3.70;99.90;;;;;;5059678;28;20043;-66
2024/01/14 04:26:30;;;;;;;28.95;3.42;;;3.70;99.90;;;;;;5055235;28;20127;-66
2024/01/14 04:28:56;;;;;;;25.00;2.00;;;4.00;99.90;;;;;;5072210;28;20055;-66
2024/01/14 04:31:22;;;;;;;27.65;2.38;;;3.80;99.90;;;;;;5071706;28;20138;-67
2024/01/14 04:33:48;;;;;;;26.85;2.45;;;4.00;99.90;;;;;;5061542;28;20044;-66
2024/01/14 04:36:15;;;;;;;33.60;3.00;;;3.70;99.90;;;;;;5055220;28;20040;-66
2024/01/14 04:38:41;;;;;;;30.95;2.85;;;4.10;99.90;;;;;;5076074;28;20043;-66
2024/01/14 04:41:07;;;;;;;27.58;3.00;;;4.10;99.90;;;;;;5072182;28;20090;-66
2024/01/14 04:43:32;;;;;;;35.67;3.25;;;4.00;99.90;;;;;;5070981;28;20305;-66
2024/01/14 04:45:58;;;;;;;23.88;2.67;;;3.80;99.90;;;;;;5071751;28;20443;-66
2024/01/14 04:48:24;;;;;;;20.02;2.22;;;3.80;99.90;;;;;;5071935;28;20513;-66
2024/01/14 04:50:53;;;;;;;23.23;2.40;;;4.00;99.90;;;;;;5055288;28;20505;-65
2024/01/14 04:53:19;;;;;;;24.88;2.10;;;3.90;99.90;;;;;;5075844;28;20051;-65
2024/01/14 04:55:45;;;;;;;17.38;1.58;;;3.60;99.90;;;;;;5054603;28;20425;-66
2024/01/14 04:58:11;;;;;;;24.42;2.05;;;3.60;99.90;;;;;;5055297;28;20309;-66
2024/01/14 05:00:37;;;;;;;15.25;1.23;;;3.80;99.90;;;;;;5071211;28;20032;-66
2024/01/14 05:03:03;;;;;;;23.60;1.70;;;3.60;99.90;;;;;;5059615;28;20430;-66
2024/01/14 05:05:29;;;;;;;17.05;1.52;;;3.70;99.90;;;;;;5072509;28;20040;-66
2024/01/14 05:07:55;;;;;;;17.33;1.20;;;3.40;99.90;;;;;;5054301;28;20065;-65
2024/01/14 05:10:21;;;;;;;16.95;1.55;;;3.50;99.90;;;;;;5070879;28;20036;-67
2024/01/14 05:12:46;;;;;;;18.48;1.58;;;3.70;99.90;;;;;;5053746;28;20035;-66
2024/01/14 05:15:12;;;;;;;15.18;1.30;;;3.60;99.90;;;;;;5054804;28;20039;-66
2024/01/14 05:17:38;;;;;;;15.40;1.08;;;3.50;99.90;;;;;;5070730;28;20108;-67
2024/01/14 05:20:04;;;;;;;17.98;1.65;;;3.50;99.90;;;;;;5053971;28;20275;-66
2024/01/14 05:22:31;;;;;;;19.05;1.52;;;3.60;99.90;;;;;;5054403;28;20036;-66
2024/01/14 05:24:57;;;;;;;18.90;2.40;;;3.70;99.90;;;;;;5038556;28;20432;-66
2024/01/14 05:27:23;;;;;;;24.42;1.63;;;3.60;99.90;;;;;;5053880;28;20039;-67
2024/01/14 05:29:49;;;;;;;16.92;2.17;;;3.30;99.90;;;;;;5052857;28;20105;-65
2024/01/14 05:32:16;;;;;;;20.95;2.47;;;3.70;99.90;;;;;;5071078;28;20043;-67
2024/01/14 05:34:43;;;;;;;16.45;1.70;;;3.60;99.90;;;;;;5070990;28;20533;-64
2024/01/14 05:37:09;;;;;;;20.30;2.60;;;3.60;99.90;;;;;;5071117;28;20220;-65
2024/01/14 05:39:35;;;;;;;21.20;1.88;;;3.60;99.90;;;;;;5053835;28;20529;-66
2024/01/14 05:42:02;;;;;;;16.83;1.50;;;3.50;99.90;;;;;;5041927;28;20205;-65
2024/01/14 05:44:27;;;;;;;15.50;1.33;;;3.10;99.90;;;;;;5053414;28;20054;-65
2024/01/14 05:46:54;;;;;;;13.88;1.35;;;3.50;99.90;;;;;;5053860;28;20043;-65
2024/01/14 05:49:20;;;;;;;20.33;1.58;;;3.40;99.90;;;;;;5070622;28;20047;-66
2024/01/14 05:51:46;;;;;;;14.07;1.30;;;3.20;99.90;;;;;;5070769;28;20051;-66
2024/01/14 05:54:13;;;;;;;20.42;1.35;;;3.30;99.90;;;;;;5070821;28;20047;-65
2024/01/14 05:56:38;;;;;;;17.58;1.27;;;2.90;99.90;;;;;;5070397;28;20654;-65
2024/01/14 05:59:04;;;;;;;17.67;1.42;;;2.80;99.90;;;;;;5069753;28;20118;-66
2024/01/14 06:01:30;;;;;;;18.77;1.45;;;2.70;99.90;;;;;;5071013;28;20040;-66
2024/01/14 06:03:56;;;;;;;21.80;2.45;;;2.90;99.90;;;;;;5053545;28;20049;-65
2024/01/14 06:06:24;;;;;;;14.68;1.25;;;3.10;99.90;;;;;;5071047;28;20508;-66
2024/01/14 06:08:50;;;;;;;18.65;1.45;;;3.00;99.90;;;;;;5052969;28;21039;-68
2024/01/14 06:11:16;;;;;;;17.30;1.27;;;2.60;99.90;;;;;;5053579;28;20110;-66
2024/01/14 06:13:42;;;;;;;17.60;1.13;;;2.40;99.90;;;;;;5069737;28;20076;-65
2024/01/14 06:16:08;;;;;;;17.63;1.13;;;2.80;99.90;;;;;;5054725;28;20440;-66
2024/01/14 06:18:34;;;;;;;25.13;1.48;;;2.70;99.90;;;;;;5053709;28;20229;-66
2024/01/14 06:21:01;;;;;;;27.77;2.13;;;2.70;99.90;;;;;;5070051;28;20055;-65
2024/01/14 06:23:28;;;;;;;21.38;1.80;;;2.80;99.90;;;;;;5053415;28;20039;-65
2024/01/14 06:25:53;;;;;;;17.25;1.73;;;2.10;99.90;;;;;;5075268;28;20035;-65
2024/01/14 06:28:19;;;;;;;22.00;1.40;;;2.40;99.90;;;;;;5053365;28;20112;-66
2024/01/14 06:30:45;;;;;;;20.30;1.83;;;2.00;99.90;;;;;;5054554;28;20043;-66
2024/01/14 06:33:12;;;;;;;18.27;0.95;;;2.30;99.90;;;;;;5070951;28;20047;-65
2024/01/14 06:35:38;;;;;;;24.77;2.45;;;2.60;99.90;;;;;;5041957;28;20100;-65
2024/01/14 06:38:04;;;;;;;26.45;2.92;;;2.40;99.90;;;;;;5053018;28;20428;-66
2024/01/14 06:40:30;;;;;;;21.20;1.67;;;2.50;99.90;;;;;;5042730;28;20046;-66
2024/01/14 06:42:56;;;;;;;21.42;1.85;;;2.70;99.90;;;;;;5053258;28;20420;-65
2024/01/14 06:45:22;;;;;;;24.83;1.90;;;2.60;99.90;;;;;;5053746;28;20518;-66
2024/01/14 06:47:48;;;;;;;22.50;1.92;;;2.00;99.90;;;;;;5053706;28;20035;-66
2024/01/14 06:50:13;;;;;;;22.65;1.50;;;2.20;99.90;;;;;;5088484;28;20150;-67
2024/01/14 06:52:40;;;;;;;33.47;2.38;;;1.90;99.90;;;;;;5053149;28;20051;-66
2024/01/14 06:55:06;;;;;;;26.33;2.30;;;2.40;99.90;;;;;;5052760;28;20185;-66
2024/01/14 06:57:32;;;;;;;18.55;1.40;;;2.00;99.90;;;;;;5051817;28;20277;-67
2024/01/14 06:59:59;;;;;;;22.42;2.47;;;2.40;99.90;;;;;;5069312;28;20096;-66
2024/01/14 07:02:26;;;;;;;28.65;2.05;;;2.10;99.90;;;;;;5070497;28;20328;-66
2024/01/14 07:04:52;;;;;;;18.25;1.23;;;2.70;99.90;;;;;;5036469;28;20036;-66
2024/01/14 07:07:18;;;;;;;21.35;1.85;;;2.10;99.90;;;;;;5069633;28;20105;-66
2024/01/14 07:09:44;;;;;;;19.35;1.60;;;2.10;99.90;;;;;;5022489;28;20395;-65
2024/01/14 07:12:10;;;;;;;19.85;1.90;;;2.60;99.90;;;;;;5052937;28;20101;-66
2024/01/14 07:14:35;;;;;;;20.10;1.40;;;2.70;99.90;;;;;;5036517;28;20073;-66
2024/01/14 07:17:01;;;;;;;22.70;1.70;;;2.80;99.90;;;;;;5070669;28;20129;-67
2024/01/14 07:19:27;;;;;;;19.23;1.35;;;2.80;99.90;;;;;;5049456;28;20387;-67
2024/01/14 07:21:53;;;;;;;12.63;1.00;;;2.80;99.90;;;;;;5049752;28;20361;-66
2024/01/14 07:24:19;;;;;;;22.20;1.70;;;2.80;99.90;;;;;;5050481;28;20218;-67
2024/01/14 07:26:45;;;;;;;14.98;1.17;;;2.90;99.90;;;;;;5070638;28;20044;-66
2024/01/14 07:29:10;;;;;;;18.23;1.00;;;2.80;99.90;;;;;;5052540;28;20079;-66
2024/01/14 07:31:36;;;;;;;17.55;0.95;;;3.20;99.90;;;;;;5041672;28;20432;-67
2024/01/14 07:34:02;;;;;;;19.25;1.15;;;3.30;99.90;;;;;;5069983;28;20257;-66
2024/01/14 07:36:28;;;;;;;10.07;1.25;;;3.10;99.90;;;;;;5053608;28;20044;-65
2024/01/14 07:38:55;;;;;;;13.27;0.70;;;3.20;99.90;;;;;;5070082;28;20056;-65
2024/01/14 07:41:21;;;;;;;13.43;0.70;;;3.60;99.90;;;;;;5053381;28;20156;-67
2024/01/14 07:43:46;;;;;;;10.93;0.60;;;3.50;99.90;;;;;;5069746;28;20422;-67
2024/01/14 07:46:12;;;;;;;13.07;1.00;;;3.40;99.90;;;;;;5069859;28;20529;-67
2024/01/14 07:48:39;;;;;;;15.10;0.60;;;3.60;99.90;;;;;;5053803;28;20051;-67
2024/01/14 07:51:05;;;;;;;16.73;1.25;;;3.20;99.90;;;;;;5075117;28;20044;-65
2024/01/14 07:53:30;;;;;;;17.40;0.63;;;3.40;99.90;;;;;;5074667;28;20474;-65
2024/01/14 07:55:56;;;;;;;13.57;1.05;;;2.90;99.90;;;;;;5053398;28;20126;-64
2024/01/14 07:58:22;;;;;;;19.95;1.50;;;2.90;99.90;;;;;;5053058;28;20036;-65
2024/01/14 08:00:48;;;;;;;18.23;1.35;;;2.80;99.90;;;;;;5035886;28;20054;-65
2024/01/14 08:03:14;;;;;;;16.70;1.45;;;2.90;99.90;;;;;;5053479;28;20052;-64
2024/01/14 08:05:39;;;;;;;18.02;1.63;;;2.80;99.90;;;;;;5070092;28;20774;-65
2024/01/14 08:08:06;;;;;;;18.30;1.67;;;2.70;99.90;;;;;;5052215;28;20727;-65
2024/01/14 08:10:35;;;;;;;26.23;1.55;;;2.30;99.90;;;;;;5052242;28;20801;-66
2024/01/14 08:13:01;;;;;;;22.20;1.73;;;2.90;99.90;;;;;;5036088;28;20456;-65
2024/01/14 08:15:27;;;;;;;23.38;2.30;;;2.20;99.90;;;;;;5036695;28;20044;-65
2024/01/14 08:17:53;;;;;;;26.65;2.28;;;2.50;99.90;;;;;;5036336;28;20046;-65
2024/01/14 08:20:19;;;;;;;18.98;1.70;;;2.70;99.90;;;;;;5052465;28;20059;-65
2024/01/14 08:22:45;;;;;;;23.60;2.00;;;2.20;99.90;;;;;;5042164;28;20497;-65
2024/01/14 08:25:11;;;;;;;21.92;1.70;;;2.30;99.90;;;;;;5054818;28;20146;-66
2024/01/14 08:27:38;;;;;;;25.58;2.28;;;2.60;99.90;;;;;;5070506;28;20031;-66
2024/01/14 08:30:06;;;;;;;22.92;2.42;;;3.00;99.90;;;;;;5071276;28;20054;-66
2024/01/14 08:32:32;;;;;;;20.30;1.92;;;3.20;99.90;;;;;;5070223;28;20091;-66
2024/01/14 08:34:58;;;;;;;22.50;1.98;;;2.60;99.90;;;;;;5037271;28;20464;-66
2024/01/14 08:37:27;;;;;;;19.00;1.67;;;3.30;99.90;;;;;;5071727;28;20055;-66
2024/01/14 08:39:53;;;;;;;22.63;1.77;;;3.10;99.90;;;;;;5070129;28;20040;-66
2024/01/14 08:42:18;;;;;;;20.10;1.77;;;3.20;99.90;;;;;;5052511;28;20283;-66
2024/01/14 08:44:44;;;;;;;22.98;1.80;;;3.30;99.90;;;;;;5037065;28;20040;-66
2024/01/14 08:47:10;;;;;;;21.20;2.30;;;3.20;99.90;;;;;;5069696;28;20079;-66
2024/01/14 08:49:36;;;;;;;25.85;1.75;;;2.60;99.90;;;;;;5035758;28;20101;-66
2024/01/14 08:52:02;;;;;;;20.90;1.95;;;2.70;99.90;;;;;;5069674;28;20040;-66
2024/01/14 08:54:31;;;;;;;22.48;2.20;;;2.50;99.90;;;;;;5069913;28;20081;-66
2024/01/14 08:56:57;;;;;;;18.30;1.50;;;3.10;99.90;;;;;;5074861;28;20044;-66
2024/01/14 08:59:23;;;;;;;21.40;1.83;;;2.60;99.90;;;;;;5035756;28;20040;-66
2024/01/14 09:01:49;;;;;;;17.83;1.75;;;3.30;99.90;;;;;;5069204;28;20186;-66
2024/01/14 09:04:16;;;;;;;18.20;1.50;;;3.40;99.90;;;;;;5045988;28;20114;-66
2024/01/14 09:06:42;;;;;;;25.83;2.05;;;2.80;99.90;;;;;;5066035;28;20044;-66
2024/01/14 09:09:08;;;;;;;20.52;1.75;;;3.40;99.90;;;;;;5067231;28;20344;-66
2024/01/14 09:11:34;;;;;;;15.48;1.70;;;3.50;99.90;;;;;;5051950;28;20115;-65
2024/01/14 09:14:00;;;;;;;17.92;1.40;;;3.50;99.90;;;;;;5051231;28;20213;-65
2024/01/14 09:16:26;;;;;;;17.48;1.67;;;3.40;99.90;;;;;;5052117;28;20415;-66
2024/01/14 09:18:51;;;;;;;19.25;2.15;;;3.20;99.90;;;;;;5050257;28;20343;-66
2024/01/14 09:21:17;;;;;;;22.88;2.15;;;3.70;99.90;;;;;;5054685;28;20056;-67
2024/01/14 09:23:43;;;;;;;23.63;2.08;;;3.40;99.90;;;;;;5070301;28;20071;-66
2024/01/14 09:26:09;;;;;;;19.52;2.38;;;4.00;99.90;;;;;;5053997;28;20126;-66
2024/01/14 09:28:36;;;;;;;28.70;3.33;;;3.70;99.90;;;;;;5054264;28;20035;-66
2024/01/14 09:31:02;;;;;;;20.90;2.08;;;3.80;99.90;;;;;;5053263;28;20065;-67
2024/01/14 09:33:28;;;;;;;15.25;2.00;;;4.00;99.90;;;;;;5070243;28;20065;-66
2024/01/14 09:35:57;;;;;;;15.02;1.70;;;4.30;99.90;;;;;;5054378;28;20044;-66
2024/01/14 09:38:23;;;;;;;18.90;1.35;;;4.20;99.90;;;;;;5055129;28;20081;-66
2024/01/14 09:41:25;;;;;;;13.95;1.40;;;3.80;99.90;;;;;;5074901;28;20047;-66
2024/01/14 09:43:51;;;;;;;17.20;1.20;;;3.90;99.90;;;;;;5071513;28;20411;-66
2024/01/14 09:46:18;;;;;;;11.75;1.08;;;4.00;99.90;;;;;;5056376;28;20075;-66
2024/01/14 09:48:46;;;;;;;15.18;1.17;;;3.90;99.90;;;;;;5055510;28;20130;-65
2024/01/14 09:51:14;;;;;;;14.18;0.95;;;4.00;99.90;;;;;;5072085;28;20043;-66
2024/01/14 09:53:41;;;;;;;11.80;0.80;;;3.80;99.90;;;;;;5056387;28;20051;-66
2024/01/14 09:56:10;;;;;;;11.10;0.93;;;3.80;99.90;;;;;;5073636;28;20336;-64
2024/01/14 09:58:39;;;;;;;12.05;1.23;;;3.80;99.90;;;;;;5056241;28;20047;-65
2024/01/14 10:01:08;;;;;;;20.85;1.35;;;4.10;99.90;;;;;;5071605;28;20047;-65
2024/01/14 10:03:34;;;;;;;18.00;1.33;;;4.10;99.90;;;;;;5071519;28;20100;-65
2024/01/14 10:06:31;;;;;;;13.15;1.10;;;4.10;99.90;;;;;;5046963;28;20036;-66
2024/01/14 10:08:58;;;;;;;11.90;0.88;;;4.10;99.90;;;;;;5091481;28;20104;-65
2024/01/14 10:11:24;;;;;;;14.18;1.35;;;3.80;99.90;;;;;;5074030;28;20521;-65
2024/01/14 10:13:50;;;;;;;11.07;0.95;;;4.00;99.90;;;;;;5073219;28;20047;-65
2024/01/14 10:16:17;;;;;;;16.92;1.23;;;4.40;99.90;;;;;;5054836;28;20587;-66
2024/01/14 10:18:43;;;;;;;9.05;0.95;;;4.40;99.90;;;;;;5056085;28;20036;-65
2024/01/14 10:21:11;;;;;;;12.30;0.93;;;4.70;99.90;;;;;;5056248;28;20519;-65
2024/01/14 10:23:39;;;;;;;12.68;1.17;;;5.40;99.90;;;;;;5072532;28;20481;-67
2024/01/14 10:26:05;;;;;;;11.95;0.98;;;6.10;99.90;;;;;;5073288;28;20040;-66
2024/01/14 10:28:38;;;;;;;11.88;1.00;;;6.30;99.90;;;;;;5039940;28;20328;-66
2024/01/14 10:31:08;;;;;;;19.08;1.52;;;6.20;99.90;;;;;;5038846;28;20248;-65
2024/01/14 10:33:35;;;;;;;19.58;1.40;;;5.70;99.90;;;;;;5036942;28;20441;-66
2024/01/14 10:36:06;;;;;;;10.50;0.77;;;5.50;99.90;;;;;;5070597;28;20212;-67
2024/01/14 10:38:32;;;;;;;12.50;1.10;;;5.30;99.90;;;;;;5069678;28;20055;-66
2024/01/14 10:40:58;;;;;;;14.05;1.27;;;5.10;99.90;;;;;;5027037;28;20348;-66
2024/01/14 10:43:26;;;;;;;15.60;1.20;;;5.30;99.90;;;;;;5069820;28;20513;-65
2024/01/14 10:45:52;;;;;;;11.63;1.45;;;5.60;99.90;;;;;;5070252;28;20467;-65
2024/01/14 10:48:26;;;;;;;13.48;1.35;;;6.00;99.90;;;;;;5069931;28;20105;-66
2024/01/14 10:51:00;;;;;;;9.00;0.93;;;6.20;99.90;;;;;;5071152;28;20314;-66
2024/01/14 10:53:33;;;;;;;15.35;1.40;;;6.20;99.90;;;;;;5071579;28;20100;-67
2024/01/14 10:56:05;;;;;;;11.30;0.90;;;6.30;99.90;;;;;;5054970;28;20830;-66
2024/01/14 10:58:37;;;;;;;11.43;0.73;;;7.10;99.90;;;;;;5054947;28;20166;-66
2024/01/14 11:01:07;;;;;;;11.32;1.10;;;7.50;99.90;;;;;;5075647;28;20128;-66
2024/01/14 11:03:33;;;;;;;9.85;0.80;;;7.40;99.90;;;;;;5058180;28;20040;-66
2024/01/14 11:06:00;;;;;;;13.07;0.77;;;6.60;99.90;;;;;;5057927;28;20036;-68
2024/01/14 11:08:26;;;;;;;7.97;0.93;;;6.30;99.90;;;;;;5057909;28;20047;-67
2024/01/14 11:10:54;;;;;;;7.85;0.60;;;5.80;99.90;;;;;;5058332;28;20035;-68
2024/01/14 11:13:39;;;;;;;7.57;0.60;;;5.70;99.90;;;;;;5075076;28;20050;-65
2024/01/14 11:16:29;;;;;;;5.25;0.25;;;5.60;99.90;;;;;;5043550;28;20039;-66
2024/01/14 11:19:05;;;;;;;6.90;0.50;;;5.40;99.90;;;;;;5073667;28;20546;-66
2024/01/14 11:22:01;;;;;;;8.18;0.60;;;5.30;99.90;;;;;;5056681;28;20044;-66
2024/01/14 11:24:28;;;;;;;7.63;0.55;;;5.40;99.90;;;;;;5056874;28;20058;-66
2024/01/14 11:26:57;;;;;;;10.05;0.60;;;5.50;99.90;;;;;;5057471;28;20039;-66
2024/01/14 11:29:33;;;;;;;5.10;0.43;;;5.30;99.90;;;;;;5058114;28;20039;-66
2024/01/14 11:32:19;;;;;;;11.52;0.85;;;5.50;99.90;;;;;;5058125;28;20039;-66
2024/01/14 11:34:47;;;;;;;12.60;0.60;;;5.50;99.90;;;;;;5041569;28;20051;-66
2024/01/14 11:37:48;;;;;;;12.05;1.17;;;5.50;99.90;;;;;;5074900;28;20114;-66
2024/01/14 11:40:27;;;;;;;10.85;0.85;;;6.00;99.90;;;;;;5058041;28;20079;-66
2024/01/14 11:43:07;;;;;;;9.57;0.90;;;6.20;99.90;;;;;;5075537;28;20963;-66
2024/01/14 11:45:34;;;;;;;5.97;0.52;;;6.70;99.90;;;;;;5059360;28;20091;-66
2024/01/14 11:48:06;;;;;;;9.30;1.00;;;6.70;99.90;;;;;;5075436;28;20493;-66
2024/01/14 11:50:33;;;;;;;7.60;0.60;;;6.50;99.90;;;;;;5072857;28;20079;-67
2024/01/14 11:53:00;;;;;;;9.65;0.70;;;6.30;99.90;;;;;;5055453;28;20389;-66
2024/01/14 11:55:31;;;;;;;13.18;1.13;;;6.10;99.90;;;;;;5057572;28;20398;-66
2024/01/14 11:58:09;;;;;;;11.68;0.75;;;5.90;99.90;;;;;;5073847;28;20338;-66
2024/01/14 12:00:38;;;;;;;10.52;0.63;;;5.90;99.90;;;;;;5057972;28;20378;-66
2024/01/14 12:03:05;;;;;;;9.77;0.80;;;6.30;99.90;;;;;;5040425;28;20067;-66
2024/01/14 12:05:31;;;;;;;8.48;0.82;;;6.50;99.90;;;;;;5056483;28;20293;-66
2024/01/14 12:07:59;;;;;;;10.45;0.68;;;6.70;99.90;;;;;;5056477;28;20032;-66
2024/01/14 12:10:24;;;;;;;6.40;0.50;;;7.10;99.90;;;;;;5055086;28;20160;-66
2024/01/14 12:12:50;;;;;;;11.70;0.90;;;7.10;99.90;;;;;;5055756;28;20039;-66
2024/01/14 12:15:16;;;;;;;8.77;0.80;;;7.00;99.90;;;;;;5038825;28;20035;-67
2024/01/14 12:18:00;;;;;;;4.20;0.35;;;6.60;99.90;;;;;;5054967;28;20489;-66
2024/01/14 12:20:27;;;;;;;13.02;0.73;;;6.30;99.90;;;;;;5055192;28;20134;-65
2024/01/14 12:22:58;;;;;;;9.30;0.80;;;6.00;99.90;;;;;;5044200;28;20043;-66
2024/01/14 12:25:24;;;;;;;8.77;0.70;;;5.80;99.90;;;;;;5072689;28;20274;-66
2024/01/14 12:27:50;;;;;;;8.63;0.70;;;5.90;99.90;;;;;;5071637;28;20045;-66
2024/01/14 12:30:34;;;;;;;14.05;0.75;;;5.90;99.90;;;;;;5054966;28;20259;-66
2024/01/14 12:33:12;;;;;;;7.93;0.63;;;5.70;99.90;;;;;;5071861;28;20050;-65
2024/01/14 12:35:39;;;;;;;8.55;0.50;;;6.10;99.90;;;;;;5039010;28;20079;-66
2024/01/14 12:38:07;;;;;;;10.40;0.98;;;6.50;99.90;;;;;;5078425;28;20264;-66
2024/01/14 12:40:34;;;;;;;5.50;0.60;;;6.70;99.90;;;;;;5038458;28;20381;-66
2024/01/14 12:43:00;;;;;;;10.38;0.98;;;6.60;99.90;;;;;;5054186;28;20050;-66
2024/01/14 12:45:26;;;;;;;9.02;0.80;;;6.50;99.90;;;;;;5039809;28;20619;-68
2024/01/14 12:48:02;;;;;;;5.30;0.30;;;6.40;99.90;;;;;;5045507;28;20620;-65